Time;durP1;ratioP1;P1;durP2;ratioP2;P2;SDS_P1;SDS_P2;PMS_P1;PMS_P2;Temp;Humidity;BMP_temperature;BMP_pressure;BME280_temperature;BME280_humidity;BME280_pressure;Samples;Min_cycle;Max_cycle;Signal;HPM_P1;HPM_P2
2023/07/13 00:00:25;;;;;;;2.77;1.57;;;27.70;48.90;;;;;;5049216;28;20631;-85
2023/07/13 00:02:53;;;;;;;1.57;1.10;;;27.70;48.90;;;;;;5055844;28;20433;-85
2023/07/13 00:05:20;;;;;;;1.90;1.50;;;27.70;48.90;;;;;;5055928;28;20463;-85
2023/07/13 00:07:46;;;;;;;1.47;1.20;;;27.60;48.90;;;;;;5040558;28;20180;-85
2023/07/13 00:10:12;;;;;;;1.40;1.03;;;27.60;48.90;;;;;;5055359;28;20207;-85
2023/07/13 00:12:38;;;;;;;1.80;1.10;;;27.60;48.90;;;;;;5061311;28;20237;-85
2023/07/13 00:15:09;;;;;;;1.53;1.20;;;27.60;48.90;;;;;;5055258;28;20577;-85
2023/07/13 00:17:35;;;;;;;1.53;1.00;;;27.60;48.90;;;;;;5047014;28;20203;-85
2023/07/13 00:20:00;;;;;;;2.50;1.20;;;27.60;48.90;;;;;;5052313;28;20204;-85
2023/07/13 00:22:26;;;;;;;1.87;1.20;;;27.60;48.80;;;;;;5060480;28;20591;-85
2023/07/13 00:24:55;;;;;;;1.40;1.00;;;27.60;48.80;;;;;;5053140;28;20734;-85
2023/07/13 00:27:21;;;;;;;1.37;1.00;;;27.60;48.80;;;;;;5032792;28;20212;-86
2023/07/13 00:29:46;;;;;;;2.17;1.40;;;27.60;48.90;;;;;;5046301;28;20246;-85
2023/07/13 00:32:12;;;;;;;3.20;1.20;;;27.60;48.90;;;;;;5057029;28;20173;-85
2023/07/13 00:34:38;;;;;;;1.40;1.20;;;27.50;48.90;;;;;;5048104;28;20235;-85
2023/07/13 00:37:08;;;;;;;2.73;1.30;;;27.50;48.90;;;;;;5042455;28;20199;-85
2023/07/13 00:39:35;;;;;;;1.93;1.17;;;27.50;48.80;;;;;;5053359;28;20584;-85
2023/07/13 00:42:02;;;;;;;2.10;1.30;;;27.50;48.80;;;;;;5047225;28;20526;-85
2023/07/13 00:44:28;;;;;;;1.83;1.40;;;27.50;48.90;;;;;;5038381;28;20178;-85
2023/07/13 00:46:55;;;;;;;2.03;1.20;;;27.50;48.90;;;;;;5030564;28;20464;-85
2023/07/13 00:49:25;;;;;;;1.47;1.30;;;27.50;48.90;;;;;;5058128;28;20172;-85
2023/07/13 00:51:55;;;;;;;1.60;1.10;;;27.40;48.90;;;;;;5057565;28;20210;-85
2023/07/13 00:54:26;;;;;;;2.00;1.40;;;27.40;48.90;;;;;;5050973;28;20311;-85
2023/07/13 00:56:55;;;;;;;1.40;1.03;;;27.40;48.90;;;;;;5053071;28;20175;-86
2023/07/13 00:59:22;;;;;;;1.23;1.10;;;27.30;48.80;;;;;;5042498;28;20525;-85
2023/07/13 01:01:49;;;;;;;1.57;1.17;;;27.40;48.90;;;;;;5035900;28;20238;-86
2023/07/13 01:04:16;;;;;;;2.50;1.20;;;27.30;48.80;;;;;;5057143;28;20171;-86
2023/07/13 01:06:43;;;;;;;2.07;1.40;;;27.30;48.80;;;;;;5036717;28;20250;-86
2023/07/13 01:09:10;;;;;;;2.23;1.07;;;27.30;48.80;;;;;;5048477;28;20175;-86
2023/07/13 01:11:36;;;;;;;1.63;1.27;;;27.30;48.80;;;;;;5053389;28;20212;-86
2023/07/13 01:14:03;;;;;;;1.53;1.07;;;27.30;48.90;;;;;;5058729;28;20245;-86
2023/07/13 01:16:31;;;;;;;1.43;1.17;;;27.30;48.90;;;;;;5052036;28;20259;-86
2023/07/13 01:18:58;;;;;;;1.17;0.80;;;27.30;48.90;;;;;;5036881;28;20262;-85
2023/07/13 01:21:24;;;;;;;1.97;1.10;;;27.20;48.90;;;;;;5037072;28;20365;-86
2023/07/13 01:23:50;;;;;;;1.80;1.30;;;27.20;48.90;;;;;;5038262;28;20172;-86
2023/07/13 01:26:16;;;;;;;2.10;1.30;;;27.20;48.90;;;;;;5050773;28;20242;-86
2023/07/13 01:28:42;;;;;;;1.50;1.20;;;27.20;48.90;;;;;;5050553;28;20183;-86
2023/07/13 01:31:09;;;;;;;2.77;1.10;;;27.20;48.90;;;;;;5053349;28;20204;-86
2023/07/13 01:33:36;;;;;;;1.23;1.00;;;27.10;48.90;;;;;;5055664;28;20452;-86
2023/07/13 01:36:02;;;;;;;1.80;1.20;;;27.10;48.90;;;;;;5038110;28;20473;-85
2023/07/13 01:38:28;;;;;;;2.07;1.20;;;27.10;48.90;;;;;;5045350;28;20176;-85
2023/07/13 01:40:54;;;;;;;1.50;1.03;;;27.10;48.90;;;;;;5058701;28;20621;-85
2023/07/13 01:43:21;;;;;;;2.13;1.00;;;27.10;48.90;;;;;;5045511;28;20527;-85
2023/07/13 01:45:46;;;;;;;1.27;1.13;;;27.10;48.90;;;;;;5061197;28;20198;-85
2023/07/13 01:48:13;;;;;;;4.73;1.20;;;27.00;48.90;;;;;;5035745;28;20546;-86
2023/07/13 01:50:39;;;;;;;1.10;0.90;;;27.00;48.90;;;;;;5049309;28;20234;-86
2023/07/13 01:53:05;;;;;;;1.03;0.93;;;27.10;48.90;;;;;;5036559;28;20180;-86
2023/07/13 01:55:32;;;;;;;1.23;0.97;;;27.00;48.90;;;;;;5051549;28;20196;-85
2023/07/13 01:57:57;;;;;;;1.33;0.80;;;27.10;48.90;;;;;;5053825;28;20181;-85
2023/07/13 02:00:24;;;;;;;1.43;1.00;;;27.00;48.90;;;;;;5041482;28;20206;-85
2023/07/13 02:02:50;;;;;;;2.73;1.20;;;27.00;48.90;;;;;;5048397;28;20176;-86
2023/07/13 02:05:16;;;;;;;1.70;0.97;;;27.00;48.90;;;;;;5058552;28;20180;-86
2023/07/13 02:07:42;;;;;;;1.63;1.03;;;27.00;49.30;;;;;;5054071;28;20187;-86
2023/07/13 02:10:10;;;;;;;2.93;1.30;;;27.00;48.90;;;;;;5038492;28;20208;-86
2023/07/13 02:12:36;;;;;;;2.70;1.20;;;26.90;48.90;;;;;;5037299;28;20211;-86
2023/07/13 02:15:03;;;;;;;1.53;1.00;;;26.90;48.90;;;;;;5048715;28;20401;-85
2023/07/13 02:17:28;;;;;;;1.67;1.10;;;26.90;48.90;;;;;;5055855;28;20183;-85
2023/07/13 02:19:54;;;;;;;1.70;1.13;;;26.90;48.90;;;;;;5053408;28;20230;-85
2023/07/13 02:22:21;;;;;;;1.30;1.10;;;26.90;48.90;;;;;;5040201;28;20176;-85
2023/07/13 02:24:46;;;;;;;1.73;1.20;;;26.90;48.90;;;;;;5053251;28;20341;-86
2023/07/13 02:27:12;;;;;;;1.70;1.20;;;26.80;48.90;;;;;;5036648;28;20180;-85
2023/07/13 02:29:38;;;;;;;2.13;1.30;;;26.80;48.90;;;;;;5043499;28;20191;-86
2023/07/13 02:32:04;;;;;;;1.70;1.10;;;26.80;48.90;;;;;;5041828;28;20659;-85
2023/07/13 02:34:30;;;;;;;2.37;1.10;;;26.80;48.90;;;;;;5035815;28;20269;-85
2023/07/13 02:36:55;;;;;;;3.87;1.00;;;26.80;48.90;;;;;;5058566;28;20368;-85
2023/07/13 02:39:21;;;;;;;2.40;1.20;;;26.80;48.90;;;;;;5052946;28;20181;-85
2023/07/13 02:41:47;;;;;;;1.60;1.00;;;26.80;48.90;;;;;;5034957;28;20280;-85
2023/07/13 02:44:14;;;;;;;2.07;1.10;;;26.70;48.90;;;;;;5044649;28;20184;-85
2023/07/13 02:46:39;;;;;;;1.60;1.30;;;26.70;48.90;;;;;;5037966;28;20227;-85
2023/07/13 02:49:06;;;;;;;1.50;1.10;;;26.70;48.90;;;;;;5055804;28;20188;-85
2023/07/13 02:51:33;;;;;;;1.50;1.10;;;26.70;48.90;;;;;;5036471;28;20263;-85
2023/07/13 02:54:00;;;;;;;1.40;1.13;;;26.70;48.90;;;;;;5059804;28;20176;-85
2023/07/13 02:56:28;;;;;;;1.53;0.93;;;26.70;48.90;;;;;;5041438;28;20200;-85
2023/07/13 02:58:54;;;;;;;2.73;1.17;;;26.70;48.90;;;;;;5057853;28;20668;-86
2023/07/13 03:01:21;;;;;;;1.30;1.10;;;26.70;48.90;;;;;;5057745;28;20763;-85
2023/07/13 03:03:48;;;;;;;1.83;1.17;;;26.70;48.90;;;;;;5058880;28;20291;-86
2023/07/13 03:06:14;;;;;;;2.23;1.30;;;26.70;48.90;;;;;;5048974;28;20245;-85
2023/07/13 03:08:41;;;;;;;2.10;1.10;;;26.70;48.90;;;;;;5061242;28;20181;-85
2023/07/13 03:11:16;;;;;;;2.20;1.13;;;26.60;48.90;;;;;;5038707;28;20215;-85
2023/07/13 03:13:42;;;;;;;2.00;1.20;;;26.60;48.90;;;;;;5055854;28;20648;-85
2023/07/13 03:16:10;;;;;;;1.40;1.10;;;26.60;48.90;;;;;;5046501;28;20208;-85
2023/07/13 03:18:36;;;;;;;1.63;1.20;;;26.60;48.90;;;;;;5057579;28;20214;-85
2023/07/13 03:21:02;;;;;;;1.67;1.07;;;26.60;49.00;;;;;;5038703;28;20180;-85
2023/07/13 03:23:28;;;;;;;2.23;1.33;;;26.60;49.00;;;;;;5042452;28;20467;-85
2023/07/13 03:26:09;;;;;;;1.43;1.00;;;26.60;49.00;;;;;;5033236;28;20200;-85
2023/07/13 03:28:35;;;;;;;2.20;1.10;;;26.50;48.90;;;;;;5056298;28;20291;-85
2023/07/13 03:31:08;;;;;;;1.83;1.10;;;26.60;49.00;;;;;;5058581;28;20212;-85
2023/07/13 03:33:35;;;;;;;2.37;1.20;;;26.50;49.00;;;;;;5050264;28;20199;-85
2023/07/13 03:36:00;;;;;;;2.00;1.07;;;26.50;49.00;;;;;;5055806;28;20192;-85
2023/07/13 03:38:26;;;;;;;1.10;0.93;;;26.50;49.00;;;;;;5048182;28;20187;-85
2023/07/13 03:40:53;;;;;;;1.77;1.00;;;26.50;49.00;;;;;;5059366;28;20268;-85
2023/07/13 03:43:20;;;;;;;1.73;0.90;;;26.50;49.00;;;;;;5057847;28;20186;-85
2023/07/13 03:45:46;;;;;;;1.33;1.00;;;26.50;49.00;;;;;;5040690;28;20372;-85
2023/07/13 03:48:12;;;;;;;1.77;1.03;;;26.50;49.00;;;;;;5046459;28;20552;-85
2023/07/13 03:50:38;;;;;;;1.73;1.10;;;26.50;49.00;;;;;;5036700;28;20278;-85
2023/07/13 03:53:04;;;;;;;2.00;1.10;;;26.40;48.90;;;;;;5042989;28;20316;-85
2023/07/13 03:55:30;;;;;;;2.07;1.20;;;26.50;49.00;;;;;;5056115;28;20554;-85
2023/07/13 03:58:32;;;;;;;1.60;1.00;;;26.40;49.00;;;;;;5053834;28;20180;-85
2023/07/13 04:01:00;;;;;;;2.07;1.13;;;26.40;48.90;;;;;;5029373;28;20219;-85
2023/07/13 04:03:27;;;;;;;1.67;1.10;;;26.40;49.40;;;;;;5048073;28;20348;-85
2023/07/13 04:05:54;;;;;;;1.10;1.00;;;26.40;48.90;;;;;;5051610;28;20181;-85
2023/07/13 04:08:20;;;;;;;1.57;1.00;;;26.40;49.00;;;;;;5036284;28;20532;-85
2023/07/13 04:10:46;;;;;;;1.57;1.03;;;26.40;49.00;;;;;;5036041;28;20460;-85
2023/07/13 04:13:12;;;;;;;1.60;0.93;;;26.40;49.00;;;;;;5052005;28;20176;-84
2023/07/13 04:15:39;;;;;;;1.67;0.93;;;26.40;49.00;;;;;;5058190;28;20172;-84
2023/07/13 04:18:05;;;;;;;2.23;1.17;;;26.40;48.90;;;;;;5053869;28;20442;-85
2023/07/13 04:20:32;;;;;;;1.73;1.20;;;26.40;48.90;;;;;;5038458;28;20275;-85
2023/07/13 04:22:58;;;;;;;1.13;1.03;;;26.40;49.00;;;;;;5035983;28;20514;-85
2023/07/13 04:25:24;;;;;;;3.03;1.10;;;26.40;48.90;;;;;;5054287;28;20181;-85
2023/07/13 04:27:50;;;;;;;1.83;1.20;;;26.40;49.00;;;;;;5036161;28;20188;-85
2023/07/13 04:30:16;;;;;;;2.67;1.20;;;26.40;49.00;;;;;;5047942;28;20261;-85
2023/07/13 04:32:41;;;;;;;2.00;1.10;;;26.40;49.00;;;;;;5038525;28;20413;-85
2023/07/13 04:35:07;;;;;;;1.20;1.10;;;26.40;49.00;;;;;;5044993;28;20222;-85
2023/07/13 04:37:35;;;;;;;1.40;0.90;;;26.40;49.00;;;;;;5039625;28;20215;-85
2023/07/13 04:40:01;;;;;;;1.37;1.27;;;26.40;48.90;;;;;;5045576;28;20180;-85
2023/07/13 04:42:27;;;;;;;1.80;1.00;;;26.40;48.90;;;;;;5037086;28;20209;-84
2023/07/13 04:44:53;;;;;;;1.93;1.10;;;26.50;48.90;;;;;;5043355;28;20184;-85
2023/07/13 04:47:18;;;;;;;1.80;1.10;;;26.50;48.90;;;;;;5049940;28;20757;-86
2023/07/13 04:49:45;;;;;;;1.37;1.10;;;26.50;48.90;;;;;;5051778;28;20218;-85
2023/07/13 04:52:12;;;;;;;1.20;1.00;;;26.50;48.90;;;;;;5039903;28;20192;-85
2023/07/13 04:54:38;;;;;;;1.93;0.97;;;26.50;48.90;;;;;;5042482;28;20181;-85
2023/07/13 04:57:08;;;;;;;1.73;1.00;;;26.50;48.90;;;;;;5040443;28;20172;-85
2023/07/13 04:59:34;;;;;;;1.47;1.20;;;26.50;48.90;;;;;;5032493;28;20176;-85
2023/07/13 05:02:01;;;;;;;1.43;1.03;;;26.50;48.80;;;;;;5043189;28;20175;-86
2023/07/13 05:04:26;;;;;;;1.60;1.00;;;26.60;48.80;;;;;;5050432;28;20277;-86
2023/07/13 05:06:52;;;;;;;1.73;1.10;;;26.70;48.80;;;;;;5041157;28;20214;-86
2023/07/13 05:09:18;;;;;;;1.57;1.17;;;26.70;48.70;;;;;;5034149;28;20214;-86
2023/07/13 05:11:44;;;;;;;1.40;1.00;;;26.70;48.70;;;;;;5043559;28;20224;-86
2023/07/13 05:14:10;;;;;;;1.63;1.20;;;26.80;48.70;;;;;;5035074;28;20522;-86
2023/07/13 05:16:36;;;;;;;1.87;1.13;;;26.80;48.60;;;;;;5039464;28;20624;-86
2023/07/13 05:19:02;;;;;;;3.10;1.13;;;26.90;48.60;;;;;;5041936;28;20277;-86
2023/07/13 05:21:28;;;;;;;1.43;1.10;;;26.90;48.60;;;;;;5050477;28;20199;-87
2023/07/13 05:23:55;;;;;;;2.53;1.13;;;26.90;48.50;;;;;;5037787;28;20202;-86
2023/07/13 05:26:21;;;;;;;2.13;1.10;;;27.00;48.50;;;;;;5049044;28;20432;-87
2023/07/13 05:28:47;;;;;;;1.07;0.90;;;27.00;48.50;;;;;;5031074;28;20323;-87
2023/07/13 05:31:13;;;;;;;1.73;1.10;;;27.00;48.40;;;;;;5050221;28;20211;-86
2023/07/13 05:33:40;;;;;;;2.37;1.00;;;27.00;48.40;;;;;;5032341;28;20181;-86
2023/07/13 05:36:07;;;;;;;4.50;1.20;;;27.00;48.50;;;;;;5036321;28;20192;-86
2023/07/13 05:38:33;;;;;;;1.87;1.10;;;27.00;48.40;;;;;;5040641;28;20517;-86
2023/07/13 05:40:59;;;;;;;1.87;0.87;;;27.00;48.40;;;;;;5030590;28;20626;-86
2023/07/13 05:43:25;;;;;;;1.30;1.10;;;27.10;48.40;;;;;;5040420;28;20454;-86
2023/07/13 05:45:53;;;;;;;2.90;1.30;;;27.10;48.40;;;;;;5032363;28;20226;-86
2023/07/13 05:48:19;;;;;;;1.73;1.03;;;27.10;48.40;;;;;;5033680;28;20180;-86
2023/07/13 05:50:45;;;;;;;3.53;1.17;;;27.10;48.40;;;;;;5042410;28;20212;-86
2023/07/13 05:53:12;;;;;;;1.63;1.00;;;27.10;48.40;;;;;;5032716;28;20462;-87
2023/07/13 05:55:47;;;;;;;1.97;1.13;;;27.10;48.40;;;;;;5033760;28;20279;-86
2023/07/13 05:58:13;;;;;;;1.40;1.10;;;27.00;48.40;;;;;;5040168;28;20267;-86
2023/07/13 06:00:39;;;;;;;1.80;1.10;;;27.00;48.50;;;;;;5031404;28;20181;-87
2023/07/13 06:03:06;;;;;;;1.70;1.10;;;27.00;48.50;;;;;;5040669;28;20180;-86
2023/07/13 06:05:33;;;;;;;1.90;1.13;;;26.90;48.50;;;;;;5046996;28;20184;-86
2023/07/13 06:07:59;;;;;;;1.50;1.00;;;26.90;48.50;;;;;;5039060;28;20428;-86
2023/07/13 06:10:25;;;;;;;1.53;1.20;;;26.90;48.50;;;;;;5031514;28;20214;-86
2023/07/13 06:12:51;;;;;;;1.40;1.03;;;26.90;48.50;;;;;;5047686;28;20735;-86
2023/07/13 06:15:17;;;;;;;4.53;1.20;;;26.90;48.50;;;;;;5049897;28;20172;-86
2023/07/13 06:17:43;;;;;;;2.93;1.20;;;27.00;48.60;;;;;;5049425;28;20428;-86
2023/07/13 06:20:09;;;;;;;2.50;1.03;;;27.00;48.50;;;;;;5048818;28;20172;-87
2023/07/13 06:22:35;;;;;;;2.67;1.23;;;27.00;48.50;;;;;;5031047;28;20384;-86
2023/07/13 06:25:01;;;;;;;1.10;1.00;;;27.00;48.50;;;;;;5038396;28;20176;-86
2023/07/13 06:27:27;;;;;;;2.40;0.90;;;27.00;48.50;;;;;;5049981;28;20340;-87
2023/07/13 06:29:52;;;;;;;1.73;1.00;;;27.00;48.50;;;;;;5043754;28;20180;-86
2023/07/13 06:32:19;;;;;;;1.40;1.03;;;27.00;48.50;;;;;;5050402;28;20179;-86
2023/07/13 06:34:45;;;;;;;1.77;1.27;;;27.00;48.40;;;;;;5040157;28;20198;-87
2023/07/13 06:37:11;;;;;;;3.17;1.37;;;27.10;48.50;;;;;;5030545;28;20180;-86
2023/07/13 06:39:37;;;;;;;3.27;1.17;;;27.10;48.40;;;;;;5032210;28;20284;-86
2023/07/13 06:42:03;;;;;;;2.30;1.10;;;27.10;48.40;;;;;;5039524;28;20184;-87
2023/07/13 06:44:28;;;;;;;1.40;0.90;;;27.20;48.40;;;;;;5025111;28;20513;-86
2023/07/13 06:46:54;;;;;;;2.57;1.30;;;27.20;48.30;;;;;;5050214;28;20376;-88
2023/07/13 06:49:20;;;;;;;1.50;1.10;;;27.30;48.40;;;;;;5055428;28;20172;-87
2023/07/13 06:51:46;;;;;;;2.10;1.20;;;27.30;48.30;;;;;;5033773;28;20223;-86
2023/07/13 06:54:11;;;;;;;2.63;1.20;;;27.40;48.30;;;;;;5033644;28;20367;-86
2023/07/13 06:56:37;;;;;;;1.33;1.10;;;27.50;48.20;;;;;;5039827;28;20184;-88
2023/07/13 06:59:02;;;;;;;2.07;1.20;;;27.50;48.20;;;;;;5030258;28;20241;-86
2023/07/13 07:01:29;;;;;;;1.23;1.10;;;27.60;48.20;;;;;;5048949;28;20301;-86
2023/07/13 07:03:54;;;;;;;1.40;1.10;;;27.70;48.10;;;;;;5049777;28;20370;-87
2023/07/13 07:06:24;;;;;;;2.50;1.10;;;27.60;48.10;;;;;;5049899;28;20190;-87
2023/07/13 07:08:50;;;;;;;3.60;1.43;;;27.70;48.00;;;;;;5032681;28;20187;-87
2023/07/13 07:11:24;;;;;;;2.40;1.30;;;27.70;48.00;;;;;;5035067;28;20590;-87
2023/07/13 07:13:52;;;;;;;2.85;1.30;;;27.70;48.00;;;;;;5041781;28;20266;-87
2023/07/13 07:16:18;;;;;;;1.40;1.15;;;27.70;48.00;;;;;;5033069;28;20212;-87
2023/07/13 07:18:45;;;;;;;1.73;1.10;;;27.70;48.00;;;;;;5050479;28;20604;-87
2023/07/13 07:21:11;;;;;;;2.17;1.30;;;27.80;48.10;;;;;;5049652;28;20175;-88
2023/07/13 07:23:37;;;;;;;2.13;1.38;;;27.80;48.00;;;;;;5040021;28;20287;-87
2023/07/13 07:26:03;;;;;;;1.33;1.05;;;27.90;48.00;;;;;;5049451;28;20279;-87
2023/07/13 07:28:29;;;;;;;2.55;1.30;;;27.90;48.00;;;;;;5045809;28;20195;-87
2023/07/13 07:30:56;;;;;;;1.88;1.10;;;28.00;48.00;;;;;;5046013;28;20354;-86
2023/07/13 07:33:22;;;;;;;1.83;1.10;;;28.10;48.00;;;;;;5035320;28;20373;-87
2023/07/13 07:35:48;;;;;;;1.75;1.20;;;28.10;47.90;;;;;;5022141;28;20541;-87
2023/07/13 07:38:15;;;;;;;3.25;1.25;;;28.10;47.90;;;;;;5038087;28;20187;-87
2023/07/13 07:40:41;;;;;;;3.08;1.10;;;28.20;47.90;;;;;;5020154;28;20625;-87
2023/07/13 07:43:08;;;;;;;3.92;1.50;;;28.30;47.80;;;;;;5046518;28;20632;-87
2023/07/13 07:45:34;;;;;;;1.75;1.25;;;28.30;47.80;;;;;;5030766;28;20201;-87
2023/07/13 07:48:00;;;;;;;1.95;1.30;;;28.40;47.70;;;;;;5039166;28;20191;-86
2023/07/13 07:50:27;;;;;;;2.47;1.10;;;28.40;47.70;;;;;;5048184;28;20196;-87
2023/07/13 07:52:53;;;;;;;2.83;1.30;;;28.50;47.70;;;;;;5040261;28;20180;-87
2023/07/13 07:55:19;;;;;;;2.63;1.30;;;28.50;47.60;;;;;;5049019;28;20179;-87
2023/07/13 07:57:45;;;;;;;1.98;1.20;;;28.60;47.60;;;;;;5049136;28;20176;-87
2023/07/13 08:00:11;;;;;;;2.65;1.20;;;28.60;48.00;;;;;;5048554;28;20180;-87
2023/07/13 08:02:37;;;;;;;4.45;1.42;;;28.60;47.60;;;;;;5035507;28;20508;-87
2023/07/13 08:05:03;;;;;;;1.90;1.48;;;28.70;47.60;;;;;;5043868;28;20172;-87
2023/07/13 08:07:31;;;;;;;2.30;1.40;;;28.70;47.50;;;;;;5041438;28;20176;-87
2023/07/13 08:09:56;;;;;;;2.05;1.30;;;28.80;47.50;;;;;;5027142;28;20187;-87
2023/07/13 08:12:22;;;;;;;3.15;1.35;;;28.80;47.40;;;;;;5044402;28;20179;-87
2023/07/13 08:14:53;;;;;;;2.45;1.40;;;28.80;47.50;;;;;;5028019;28;20251;-87
2023/07/13 08:17:20;;;;;;;2.63;1.30;;;28.90;47.50;;;;;;5035668;28;20242;-88
2023/07/13 08:19:46;;;;;;;2.25;1.35;;;29.00;47.40;;;;;;5034858;28;20794;-87
2023/07/13 08:22:12;;;;;;;2.42;1.30;;;29.10;47.40;;;;;;5025702;28;20283;-89
2023/07/13 08:24:38;;;;;;;2.38;1.48;;;29.10;47.30;;;;;;5042420;28;20486;-87
2023/07/13 08:27:04;;;;;;;1.70;1.10;;;29.10;47.30;;;;;;5026476;28;20283;-87
2023/07/13 08:29:31;;;;;;;2.85;1.40;;;29.30;47.30;;;;;;5033411;28;20620;-87
2023/07/13 08:31:57;;;;;;;2.83;1.38;;;29.30;47.20;;;;;;5035920;28;20216;-88
2023/07/13 08:34:23;;;;;;;2.67;1.25;;;29.30;47.20;;;;;;5026389;28;20302;-88
2023/07/13 08:36:49;;;;;;;1.70;1.20;;;29.40;47.20;;;;;;5035582;28;20184;-87
2023/07/13 08:39:14;;;;;;;1.95;1.42;;;29.40;47.10;;;;;;5046204;28;20191;-88
2023/07/13 08:41:40;;;;;;;1.98;1.40;;;29.50;47.10;;;;;;5041551;28;20491;-87
2023/07/13 08:44:18;;;;;;;3.10;1.23;;;29.50;47.00;;;;;;5027707;28;20179;-87
2023/07/13 08:46:45;;;;;;;1.88;1.35;;;29.60;47.00;;;;;;5041477;28;20191;-87
2023/07/13 08:49:15;;;;;;;1.88;1.10;;;29.60;47.00;;;;;;5042617;28;20384;-87
2023/07/13 08:51:49;;;;;;;2.90;1.58;;;29.70;47.00;;;;;;5043408;28;20247;-87
2023/07/13 08:54:39;;;;;;;3.95;1.30;;;29.70;47.00;;;;;;5043183;28;20631;-87
2023/07/13 08:57:19;;;;;;;2.55;1.33;;;29.60;47.00;;;;;;5043482;28;20353;-87
2023/07/13 08:59:45;;;;;;;4.35;1.50;;;29.60;47.00;;;;;;5025144;28;20180;-89
2023/07/13 09:02:40;;;;;;;2.75;1.40;;;29.70;47.10;;;;;;5035007;28;20254;-87
2023/07/13 09:05:24;;;;;;;4.35;1.73;;;29.60;47.10;;;;;;5040173;28;20192;-88
2023/07/13 09:08:11;;;;;;;3.13;1.42;;;29.60;47.10;;;;;;5043901;28;20440;-89
2023/07/13 09:10:45;;;;;;;5.20;1.67;;;29.60;47.20;;;;;;5040063;28;20314;-86
2023/07/13 09:13:23;;;;;;;3.47;1.67;;;29.60;47.20;;;;;;5026172;28;20498;-86
2023/07/13 09:15:50;;;;;;;3.65;1.65;;;29.50;47.20;;;;;;5034095;28;20179;-87
2023/07/13 09:18:23;;;;;;;2.57;1.50;;;29.60;47.10;;;;;;5024987;28;20172;-87
2023/07/13 09:21:14;;;;;;;2.47;1.65;;;29.70;47.10;;;;;;5030126;28;20240;-87
2023/07/13 09:23:40;;;;;;;2.45;1.55;;;29.70;47.20;;;;;;5011317;28;20335;-87
2023/07/13 09:26:14;;;;;;;2.80;1.50;;;29.60;47.10;;;;;;5033338;28;20188;-87
2023/07/13 09:28:44;;;;;;;3.20;1.80;;;29.70;47.10;;;;;;5017879;28;20566;-87
2023/07/13 09:31:24;;;;;;;2.00;1.30;;;29.70;47.00;;;;;;5041031;28;20207;-87
2023/07/13 09:33:50;;;;;;;3.13;1.70;;;29.80;47.00;;;;;;5041006;28;20816;-87
2023/07/13 09:36:23;;;;;;;4.05;1.60;;;29.90;46.90;;;;;;5040844;28;20441;-88
2023/07/13 09:39:10;;;;;;;2.38;1.40;;;30.00;46.90;;;;;;5038762;28;20468;-87
2023/07/13 09:41:50;;;;;;;3.63;1.50;;;29.90;46.90;;;;;;5038653;28;20184;-87
2023/07/13 09:44:19;;;;;;;2.72;1.60;;;30.00;46.90;;;;;;5039028;28;20342;-88
2023/07/13 09:46:52;;;;;;;2.50;1.40;;;30.00;46.90;;;;;;5023992;28;20185;-87
2023/07/13 09:49:18;;;;;;;3.13;1.90;;;30.00;46.80;;;;;;5033886;28;20357;-88
2023/07/13 09:51:44;;;;;;;3.75;1.45;;;30.00;46.80;;;;;;5032872;28;20208;-88
2023/07/13 09:54:21;;;;;;;3.10;1.42;;;30.10;46.80;;;;;;5017416;28;20172;-87
2023/07/13 09:56:47;;;;;;;3.28;1.63;;;30.10;46.80;;;;;;5020548;28;20654;-86
2023/07/13 09:59:21;;;;;;;2.42;1.52;;;30.10;46.70;;;;;;5031237;28;20167;-88
2023/07/13 10:01:48;;;;;;;3.15;1.50;;;30.10;46.70;;;;;;5038347;28;20195;-87
2023/07/13 10:04:18;;;;;;;3.00;1.77;;;30.10;46.70;;;;;;5041793;28;20172;-87
2023/07/13 10:06:44;;;;;;;3.60;1.58;;;30.20;46.70;;;;;;5025963;28;20545;-87
2023/07/13 10:09:15;;;;;;;2.10;1.33;;;30.20;46.70;;;;;;5034102;28;20424;-87
2023/07/13 10:11:41;;;;;;;2.60;1.52;;;30.20;46.80;;;;;;5043624;28;20261;-86
2023/07/13 10:14:16;;;;;;;3.67;1.70;;;30.10;46.70;;;;;;5042745;28;20432;-86
2023/07/13 10:16:44;;;;;;;4.07;1.60;;;30.20;46.70;;;;;;5024986;28;20681;-87
2023/07/13 10:19:25;;;;;;;2.67;1.63;;;30.20;46.80;;;;;;5025960;28;20173;-88
2023/07/13 10:22:09;;;;;;;2.75;1.60;;;30.20;46.70;;;;;;5035042;28;20376;-87
2023/07/13 10:24:38;;;;;;;3.13;1.67;;;30.20;46.80;;;;;;5044240;28;20731;-87
2023/07/13 10:27:09;;;;;;;3.10;1.63;;;30.20;46.80;;;;;;5032474;28;20385;-86
2023/07/13 10:29:43;;;;;;;2.40;1.55;;;30.20;46.80;;;;;;5021753;28;20177;-86
2023/07/13 10:32:13;;;;;;;2.72;1.50;;;30.10;46.80;;;;;;5034884;28;20231;-87
2023/07/13 10:34:44;;;;;;;3.33;1.73;;;30.10;46.80;;;;;;5025403;28;20311;-87
2023/07/13 10:37:20;;;;;;;3.53;1.88;;;30.10;46.90;;;;;;5029558;28;20188;-87
2023/07/13 10:39:47;;;;;;;3.45;1.65;;;30.10;46.90;;;;;;5036765;28;20177;-87
2023/07/13 10:42:22;;;;;;;2.83;1.65;;;30.10;47.10;;;;;;5042241;28;20176;-86
2023/07/13 10:44:47;;;;;;;2.78;1.67;;;30.10;46.90;;;;;;5042041;28;20180;-86
2023/07/13 10:47:17;;;;;;;3.03;1.50;;;30.10;46.90;;;;;;5043587;28;20376;-87
2023/07/13 10:49:43;;;;;;;3.45;1.65;;;30.00;46.90;;;;;;5034865;28;20184;-87
2023/07/13 10:52:50;;;;;;;2.83;1.75;;;30.00;46.90;;;;;;5023546;28;20261;-87
2023/07/13 10:55:38;;;;;;;3.92;1.67;;;30.00;46.90;;;;;;5010837;28;20184;-87
2023/07/13 10:58:14;;;;;;;2.72;1.42;;;30.00;46.90;;;;;;5041496;28;20203;-87
2023/07/13 11:01:05;;;;;;;2.33;1.50;;;30.00;46.90;;;;;;5033039;28;20185;-86
2023/07/13 11:03:34;;;;;;;2.92;1.55;;;30.10;46.90;;;;;;5018970;28;20491;-87
2023/07/13 11:06:09;;;;;;;2.03;1.55;;;30.00;46.90;;;;;;5023561;28;20188;-87
2023/07/13 11:08:38;;;;;;;3.20;1.60;;;30.00;47.00;;;;;;5033119;28;20194;-86
2023/07/13 11:11:24;;;;;;;3.75;1.58;;;29.90;47.00;;;;;;5023379;28;20219;-87
2023/07/13 11:13:50;;;;;;;3.40;1.60;;;29.90;47.00;;;;;;5042452;28;20184;-86
2023/07/13 11:16:15;;;;;;;3.25;1.92;;;29.90;47.10;;;;;;5044035;28;20202;-86
2023/07/13 11:18:48;;;;;;;3.35;1.63;;;29.90;47.10;;;;;;5046270;28;20226;-87
2023/07/13 11:21:20;;;;;;;3.83;1.60;;;29.90;47.10;;;;;;5037292;28;20540;-86
2023/07/13 11:23:53;;;;;;;2.08;1.38;;;29.90;47.10;;;;;;5031024;28;20207;-87
2023/07/13 11:26:47;;;;;;;2.45;1.60;;;29.90;47.10;;;;;;5029119;28;20204;-86
2023/07/13 11:29:39;;;;;;;3.67;1.83;;;29.90;47.10;;;;;;5027601;28;20191;-87
2023/07/13 11:32:26;;;;;;;3.53;1.73;;;29.90;47.10;;;;;;5025062;28;20473;-87
2023/07/13 11:34:54;;;;;;;3.25;1.70;;;29.90;47.20;;;;;;5042171;28;20187;-87
2023/07/13 11:37:21;;;;;;;3.28;1.55;;;29.90;47.20;;;;;;5046859;28;20271;-87
2023/07/13 11:39:50;;;;;;;3.30;1.70;;;29.90;47.30;;;;;;5028055;28;20184;-87
2023/07/13 11:42:18;;;;;;;3.00;1.60;;;29.90;47.30;;;;;;5036823;28;20199;-86
2023/07/13 11:44:48;;;;;;;2.85;1.73;;;29.90;47.30;;;;;;5043807;28;20168;-87
2023/07/13 11:47:22;;;;;;;4.10;1.95;;;29.80;47.30;;;;;;5046070;28;20374;-86
2023/07/13 11:49:57;;;;;;;4.47;2.05;;;29.80;47.40;;;;;;5032950;28;20180;-86
2023/07/13 11:52:31;;;;;;;3.50;1.73;;;29.80;47.40;;;;;;5025152;28;20180;-87
2023/07/13 11:55:01;;;;;;;3.63;1.85;;;29.80;47.40;;;;;;5041522;28;20183;-87
2023/07/13 11:57:33;;;;;;;2.72;1.63;;;29.80;47.40;;;;;;5026441;28;20268;-88
2023/07/13 12:00:11;;;;;;;2.85;1.50;;;29.80;47.40;;;;;;5039817;28;20219;-87
2023/07/13 12:02:41;;;;;;;2.30;1.60;;;29.70;47.30;;;;;;5044133;28;20184;-88
2023/07/13 12:05:12;;;;;;;3.40;1.65;;;29.80;47.40;;;;;;5034091;28;20216;-88
2023/07/13 12:07:38;;;;;;;2.38;1.60;;;29.70;47.40;;;;;;5023956;28;20245;-87
2023/07/13 12:10:18;;;;;;;3.60;1.77;;;29.70;47.40;;;;;;5028542;28;20365;-87
2023/07/13 12:12:52;;;;;;;3.28;1.70;;;29.70;47.40;;;;;;5041856;28;20183;-86
2023/07/13 12:15:18;;;;;;;4.05;1.90;;;29.70;47.40;;;;;;5042537;28;20250;-88
2023/07/13 12:17:45;;;;;;;3.22;1.70;;;29.70;47.40;;;;;;5025409;28;20570;-87
2023/07/13 12:20:33;;;;;;;3.03;1.67;;;29.70;47.40;;;;;;5046081;28;20206;-88
2023/07/13 12:23:00;;;;;;;2.83;1.70;;;29.70;47.40;;;;;;5041953;28;20317;-87
2023/07/13 12:25:27;;;;;;;3.38;1.75;;;29.70;47.40;;;;;;5040571;28;20184;-87
2023/07/13 12:27:53;;;;;;;2.10;1.40;;;29.70;47.40;;;;;;5038824;28;20342;-87
2023/07/13 12:30:30;;;;;;;3.63;1.83;;;29.70;47.40;;;;;;5043129;28;20218;-86
2023/07/13 12:33:10;;;;;;;3.40;1.80;;;29.60;47.40;;;;;;5036590;28;20180;-87
2023/07/13 12:35:47;;;;;;;2.33;1.48;;;29.70;47.40;;;;;;5025629;28;20199;-88
2023/07/13 12:38:14;;;;;;;3.13;1.80;;;29.60;47.30;;;;;;5036645;28;20613;-87
2023/07/13 12:40:40;;;;;;;3.22;1.90;;;29.60;47.30;;;;;;5025795;28;20277;-87
2023/07/13 12:43:14;;;;;;;2.58;1.50;;;29.60;47.30;;;;;;5022977;28;20176;-87
2023/07/13 12:45:58;;;;;;;4.82;1.67;;;29.70;47.30;;;;;;5027876;28;20239;-87
2023/07/13 12:48:25;;;;;;;2.63;1.70;;;29.60;47.20;;;;;;5035644;28;20192;-86
2023/07/13 12:50:54;;;;;;;1.75;1.45;;;29.60;47.30;;;;;;5042465;28;20207;-88
2023/07/13 12:53:28;;;;;;;1.80;1.55;;;29.60;47.20;;;;;;5033775;28;20238;-86
2023/07/13 12:56:01;;;;;;;2.58;1.40;;;29.60;47.30;;;;;;5043632;28;20366;-87